createdAt,value
2023-02-18T00:01:15.876Z,99948.97
2023-02-18T00:04:02.119Z,99946.22
2023-02-18T00:06:48.480Z,99883.81
2023-02-18T00:09:34.621Z,99963.66
2023-02-18T00:12:20.875Z,99926.34
2023-02-18T00:15:07.921Z,99867.31
2023-02-18T00:17:54.160Z,99906.34
2023-02-18T00:20:40.389Z,99914.13
2023-02-18T00:23:27.064Z,99899.41
2023-02-18T00:26:15.285Z,99924.56
2023-02-18T00:29:02.468Z,99947.16
2023-02-18T00:31:48.943Z,99890.78
2023-02-18T00:34:35.818Z,99901.22
2023-02-18T00:37:23.502Z,99908.22
2023-02-18T00:40:10.649Z,99904.75
2023-02-18T00:42:57.139Z,99931.69
2023-02-18T00:45:43.589Z,99914.31
2023-02-18T00:48:29.808Z,99941.25
2023-02-18T00:51:16.644Z,99916.09
2023-02-18T00:54:02.802Z,99908.25
2023-02-18T00:56:49.437Z,99883.94
2023-02-18T00:59:35.773Z,99925.53
2023-02-18T01:02:21.895Z,99915.16
2023-02-18T01:05:08.416Z,99935.97
2023-02-18T01:07:55.191Z,99918.72
2023-02-18T01:10:44.781Z,99941.22
2023-02-18T01:13:31.616Z,99926.50
2023-02-18T01:16:19.398Z,99891.78
2023-02-18T01:19:06.127Z,99904.78
2023-02-18T01:21:52.351Z,99893.47
2023-02-18T01:24:38.671Z,99905.56
2023-02-18T01:27:24.897Z,99920.31
2023-02-18T01:30:15.433Z,99853.53
2023-02-18T01:33:02.121Z,99910.81
2023-02-18T01:35:48.925Z,99942.94
2023-02-18T01:38:35.799Z,99898.66
2023-02-18T01:41:22.165Z,99934.31
2023-02-18T01:44:15.875Z,99932.63
2023-02-18T01:47:04.916Z,99934.31
2023-02-18T01:49:53.203Z,99933.47
2023-02-18T01:52:39.766Z,99922.19
2023-02-18T01:55:27.371Z,99905.63
2023-02-18T01:58:14.659Z,99878.72
2023-02-18T02:01:01.026Z,99884.78
2023-02-18T02:03:47.523Z,99923.88
2023-02-18T02:06:34.973Z,99927.28
2023-02-18T02:09:23.918Z,99929.00
2023-02-18T02:12:43.968Z,99930.81
2023-02-18T02:15:49.251Z,99923.88
2023-02-18T02:18:48.055Z,99880.41
2023-02-18T02:22:07.398Z,99887.38
2023-02-18T02:25:15.753Z,99902.09
2023-02-18T02:28:37.428Z,99902.94
2023-02-18T02:31:39.177Z,99918.63
2023-02-18T02:34:46.679Z,99919.53
2023-02-18T02:37:59.314Z,99857.88
2023-02-18T02:41:00.559Z,99905.66
2023-02-18T02:44:01.421Z,99887.41
2023-02-18T02:46:52.842Z,99912.66
2023-02-18T02:49:50.278Z,99912.66
2023-02-18T02:53:02.223Z,99852.75
2023-02-18T02:55:48.850Z,99896.22
2023-02-18T02:58:38.626Z,99883.19
2023-02-18T03:01:37.821Z,99900.59
2023-02-18T03:04:32.665Z,99888.50
2023-02-18T03:07:44.376Z,99865.03
2023-02-18T03:10:47.722Z,99868.47
2023-02-18T03:14:04.654Z,99888.50
2023-02-18T03:17:05.575Z,99852.88
2023-02-18T03:20:06.141Z,99875.50
2023-02-18T03:22:55.631Z,99866.84
2023-02-18T03:25:42.491Z,99824.34
2023-02-18T03:28:32.231Z,99850.34
2023-02-18T03:31:26.218Z,99835.56
2023-02-18T03:34:20.848Z,99838.13
2023-02-18T03:37:09.851Z,99880.66
2023-02-18T03:39:59.823Z,99785.19
2023-02-18T03:42:46.876Z,99849.34
2023-02-18T03:45:33.425Z,99828.56
2023-02-18T03:48:19.935Z,99844.16
2023-02-18T03:51:06.064Z,99842.44
2023-02-18T03:53:52.555Z,99859.75
2023-02-18T03:56:38.708Z,99865.84
2023-02-18T03:59:24.960Z,99845.06
2023-02-18T04:02:11.150Z,99843.25
2023-02-18T04:04:57.651Z,99851.06
2023-02-18T04:07:43.966Z,99853.69
2023-02-18T04:10:30.555Z,99850.28
2023-02-18T04:13:19.912Z,99825.16
2023-02-18T04:16:07.041Z,99809.56
2023-02-18T04:18:53.813Z,99793.97
2023-02-18T04:21:40.142Z,99825.25
2023-02-18T04:24:26.317Z,99800.06
2023-02-18T04:27:12.848Z,99836.53
2023-02-18T04:29:59.656Z,99849.53
2023-02-18T04:32:46.248Z,99822.59
2023-02-18T04:35:32.572Z,99823.53
2023-02-18T04:38:18.726Z,99818.28
2023-02-18T04:41:04.907Z,99834.81
2023-02-18T04:43:51.465Z,99792.31
2023-02-18T04:46:38.011Z,99832.19
2023-02-18T04:49:24.237Z,99816.53
2023-02-18T04:52:10.448Z,99837.44
2023-02-18T04:54:58.038Z,99816.56
2023-02-18T04:57:44.218Z,99785.31
2023-02-18T05:00:30.540Z,99818.28
2023-02-18T05:03:17.167Z,99843.50
2023-02-18T05:06:03.676Z,99812.25
2023-02-18T05:08:49.987Z,99831.28
2023-02-18T05:11:36.539Z,99821.72
2023-02-18T05:14:22.839Z,99846.06
2023-02-18T05:17:09.393Z,99845.22
2023-02-18T05:19:55.771Z,99817.47
2023-02-18T05:22:43.011Z,99800.09
2023-02-18T05:25:29.503Z,99814.81
2023-02-18T05:28:16.074Z,99803.59
2023-02-18T05:31:02.719Z,99787.97
2023-02-18T05:33:49.438Z,99794.94
2023-02-18T05:36:35.475Z,99804.41
2023-02-18T05:39:22.114Z,99790.56
2023-02-18T05:42:08.488Z,99760.19
2023-02-18T05:44:54.944Z,99828.75
2023-02-18T05:47:41.272Z,99781.94
2023-02-18T05:50:27.712Z,99795.75
2023-02-18T05:53:14.483Z,99807.97
2023-02-18T05:56:01.853Z,99777.59
2023-02-18T05:58:48.047Z,99818.38
2023-02-18T06:01:34.286Z,99785.38
2023-02-18T06:04:20.704Z,99814.78
2023-02-18T06:07:07.016Z,99828.66
2023-02-18T06:09:53.898Z,99822.69
2023-02-18T06:12:40.419Z,99800.13
2023-02-18T06:15:26.609Z,99782.78
2023-02-18T06:18:13.009Z,99788.88
2023-02-18T06:20:59.295Z,99821.81
2023-02-18T06:23:45.514Z,99799.22
2023-02-18T06:26:31.974Z,99768.06
2023-02-18T06:29:18.332Z,99789.78
2023-02-18T06:32:04.732Z,99787.13
2023-02-18T06:34:51.314Z,99757.75
2023-02-18T06:37:37.578Z,99781.09
2023-02-18T06:40:24.024Z,99801.97
2023-02-18T06:43:10.377Z,99816.66
2023-02-18T06:45:56.999Z,99801.97
2023-02-18T06:48:43.171Z,99828.84
2023-02-18T06:51:32.697Z,99820.19
2023-02-18T06:54:19.323Z,99812.38
2023-02-18T06:57:05.791Z,99795.94
2023-02-18T06:59:52.996Z,99821.94
2023-02-18T07:02:39.513Z,99785.53
2023-02-18T07:05:26.012Z,99778.56
2023-02-18T07:08:12.576Z,99813.28
2023-02-18T07:10:58.910Z,99806.31
2023-02-18T07:13:45.116Z,99806.31
2023-02-18T07:16:31.467Z,99786.41
2023-02-18T07:19:18.297Z,99782.09
2023-02-18T07:22:04.996Z,99793.41
2023-02-18T07:24:54.905Z,99797.75
2023-02-18T07:27:41.615Z,99793.44
2023-02-18T07:30:28.014Z,99796.88
2023-02-18T07:33:14.702Z,99765.72
2023-02-18T07:36:02.048Z,99782.19
2023-02-18T07:38:48.542Z,99787.38
2023-02-18T07:41:35.036Z,99744.06
2023-02-18T07:44:21.215Z,99769.19
2023-02-18T07:47:08.937Z,99776.16
2023-02-18T07:49:55.495Z,99766.59
2023-02-18T07:52:41.793Z,99753.63
2023-02-18T07:55:48.025Z,99780.47
2023-02-18T07:58:37.181Z,99778.72
2023-02-18T08:01:23.518Z,99759.66
2023-02-18T08:04:10.039Z,99756.19
2023-02-18T08:06:56.565Z,99788.28
2023-02-18T08:09:43.136Z,99761.41
2023-02-18T08:12:29.693Z,99730.22
2023-02-18T08:15:16.451Z,99753.63
2023-02-18T08:18:03.236Z,99751.88
2023-02-18T08:20:51.758Z,99748.41
2023-02-18T08:23:38.556Z,99726.75
2023-02-18T08:26:25.513Z,99740.59
2023-02-18T08:29:11.836Z,99721.56
2023-02-18T08:31:59.531Z,99718.09
2023-02-18T08:34:46.188Z,99732.78
2023-02-18T08:37:52.685Z,99740.56
2023-02-18T08:40:40.833Z,99762.22
2023-02-18T08:43:27.050Z,99764.84
2023-02-18T08:46:16.529Z,99760.50
2023-02-18T08:49:20.886Z,99720.63
2023-02-18T08:52:06.961Z,99761.38
2023-02-18T08:54:53.327Z,99722.34
2023-02-18T08:57:39.761Z,99737.09
2023-02-18T09:00:26.384Z,99726.69
2023-02-18T09:03:14.661Z,99719.75
2023-02-18T09:06:01.705Z,99719.75
2023-02-18T09:08:48.340Z,99706.72
2023-02-18T09:11:34.678Z,99721.41
2023-02-18T09:14:21.434Z,99722.28
2023-02-18T09:17:07.660Z,99752.56
2023-02-18T09:19:54.320Z,99711.00
2023-02-18T09:22:40.785Z,99721.41
2023-02-18T09:25:27.074Z,99737.00
2023-02-18T09:28:13.552Z,99748.25
2023-02-18T09:31:11.910Z,99709.28
2023-02-18T09:34:01.848Z,99747.34
2023-02-18T09:36:48.264Z,99715.38
2023-02-18T09:39:34.866Z,99711.91
2023-02-18T09:42:28.138Z,99738.72
2023-02-18T09:45:16.499Z,99736.16
2023-02-18T09:48:06.217Z,99679.03
2023-02-18T09:50:53.706Z,99747.38
2023-02-18T09:53:42.404Z,99715.34
2023-02-18T09:56:33.720Z,99704.94
2023-02-18T09:59:23.194Z,99706.66
2023-02-18T10:02:17.426Z,99742.16
2023-02-18T10:05:04.875Z,99735.25
2023-02-18T10:07:56.444Z,99717.09
2023-02-18T10:10:46.416Z,99746.50
2023-02-18T10:13:34.741Z,99723.13
2023-02-18T10:16:23.299Z,99724.75
2023-02-18T10:19:33.138Z,99740.41
2023-02-18T10:22:21.432Z,99740.41
2023-02-18T10:25:08.735Z,99716.13
2023-02-18T10:27:57.360Z,99727.31
2023-02-18T10:30:52.762Z,99686.69
2023-02-18T10:33:48.038Z,99738.63
2023-02-18T10:36:55.894Z,99749.03
2023-02-18T10:39:50.992Z,99741.28
2023-02-18T10:42:49.705Z,99744.75
2023-02-18T10:46:02.146Z,99732.63
2023-02-18T10:48:54.557Z,99727.34
2023-02-18T10:51:50.260Z,99652.06
2023-02-18T10:55:09.315Z,99728.19
2023-02-18T10:57:57.204Z,99665.09
2023-02-18T11:00:44.800Z,99728.22
2023-02-18T11:03:45.918Z,99700.50
2023-02-18T11:06:32.472Z,99722.91
2023-02-18T11:09:48.055Z,99724.59
2023-02-18T11:12:48.008Z,99735.03
2023-02-18T11:15:35.600Z,99699.59
2023-02-18T11:18:37.847Z,99719.59
2023-02-18T11:21:35.851Z,99697.06
2023-02-18T11:24:22.057Z,99673.81
2023-02-18T11:27:12.492Z,99687.63
2023-02-18T11:30:04.019Z,99666.88
2023-02-18T11:32:56.880Z,99685.00
2023-02-18T11:35:50.242Z,99685.84
2023-02-18T11:38:42.066Z,99706.63
2023-02-18T11:41:42.415Z,99687.59
2023-02-18T11:44:34.293Z,99697.09
2023-02-18T11:47:24.057Z,99706.59
2023-02-18T11:50:10.414Z,99692.72
2023-02-18T11:52:58.994Z,99678.06
2023-02-18T11:55:56.267Z,99656.47
2023-02-18T11:58:47.999Z,99669.44
2023-02-18T12:01:40.559Z,99683.25
2023-02-18T12:04:38.933Z,99689.31
2023-02-18T12:07:37.627Z,99691.91
2023-02-18T12:10:45.908Z,99673.75
2023-02-18T12:13:38.071Z,99685.06
2023-02-18T12:16:46.564Z,99689.41
2023-02-18T12:19:58.955Z,99652.16
2023-02-18T12:22:57.593Z,99692.88
2023-02-18T12:25:46.658Z,99691.13
2023-02-18T12:28:55.607Z,99623.66
2023-02-18T12:31:48.030Z,99692.03
2023-02-18T12:34:52.911Z,99679.00
2023-02-18T12:38:00.668Z,99681.59
2023-02-18T12:41:10.336Z,99681.63
2023-02-18T12:44:27.510Z,99658.25
2023-02-18T12:47:32.466Z,99668.63
2023-02-18T12:50:51.395Z,99685.09
2023-02-18T12:54:19.349Z,99671.22
2023-02-18T12:57:28.815Z,99654.75
2023-02-18T13:00:24.572Z,99656.47
2023-02-18T13:03:48.450Z,99667.78
2023-02-18T13:06:52.811Z,99621.91
2023-02-18T13:10:16.989Z,99657.34
2023-02-18T13:13:20.447Z,99632.28
2023-02-18T13:16:11.838Z,99611.47
2023-02-18T13:19:21.688Z,99643.47
2023-02-18T13:22:11.860Z,99631.34
2023-02-18T13:24:59.706Z,99643.44
2023-02-18T13:28:18.590Z,99616.56
2023-02-18T13:31:19.336Z,99626.94
2023-02-18T13:34:21.484Z,99611.41
2023-02-18T13:37:40.818Z,99626.13
2023-02-18T13:40:30.537Z,99619.19
2023-02-18T13:43:30.338Z,99618.34
2023-02-18T13:46:19.841Z,99570.75
2023-02-18T13:49:13.491Z,99617.44
2023-02-18T13:52:02.826Z,99587.13
2023-02-18T13:54:51.761Z,99581.94
2023-02-18T13:57:39.178Z,99594.91
2023-02-18T14:00:36.423Z,99585.38
2023-02-18T14:03:50.383Z,99559.38
2023-02-18T14:06:39.067Z,99576.59
2023-02-18T14:09:25.605Z,99599.94
2023-02-18T14:12:42.514Z,99591.28
2023-02-18T14:15:29.964Z,99592.19
2023-02-18T14:18:39.423Z,99575.69
2023-02-18T14:21:38.188Z,99594.56
2023-02-18T14:24:46.744Z,99596.28
2023-02-18T14:27:33.577Z,99579.19
2023-02-18T14:30:24.771Z,99599.84
2023-02-18T14:33:15.877Z,99584.31
2023-02-18T14:36:30.440Z,99599.84
2023-02-18T14:39:41.311Z,99600.69
2023-02-18T14:42:49.243Z,99591.22
2023-02-18T14:45:47.667Z,99593.84
2023-02-18T14:49:03.180Z,99567.09
2023-02-18T14:51:52.086Z,99568.84
2023-02-18T14:54:41.347Z,99549.00
2023-02-18T14:57:40.859Z,99558.53
2023-02-18T15:00:32.236Z,99554.16
2023-02-18T15:03:22.215Z,99585.22
2023-02-18T15:06:26.587Z,99599.09
2023-02-18T15:09:15.107Z,99594.72
2023-02-18T15:12:05.551Z,99608.66
2023-02-18T15:14:53.700Z,99578.44
2023-02-18T15:17:46.136Z,99582.81
2023-02-18T15:20:34.922Z,99596.66
2023-02-18T15:23:21.493Z,99583.75
2023-02-18T15:26:13.199Z,99584.56
2023-02-18T15:29:00.896Z,99607.09
2023-02-18T15:31:48.857Z,99550.88
2023-02-18T15:34:39.520Z,99595.84
2023-02-18T15:37:25.696Z,99564.72
2023-02-18T15:40:16.679Z,99586.28
2023-02-18T15:43:06.113Z,99591.56
2023-02-18T15:45:56.010Z,99582.88
2023-02-18T15:48:48.203Z,99537.94
2023-02-18T15:51:34.659Z,99518.94
2023-02-18T15:54:23.131Z,99590.72
2023-02-18T15:57:14.541Z,99594.22
2023-02-18T16:00:16.085Z,99592.50
2023-02-18T16:03:04.252Z,99590.78
2023-02-18T16:06:07.000Z,99564.84
2023-02-18T16:09:03.736Z,99570.94
2023-02-18T16:11:56.979Z,99589.94
2023-02-18T16:14:50.148Z,99563.16
2023-02-18T16:17:36.623Z,99592.59
2023-02-18T16:20:36.360Z,99595.16
2023-02-18T16:23:29.974Z,99597.75
2023-02-18T16:26:26.636Z,99592.56
2023-02-18T16:29:16.501Z,99538.09
2023-02-18T16:32:03.572Z,99588.28
2023-02-18T16:34:50.159Z,99581.34
2023-02-18T16:37:39.497Z,99588.28
2023-02-18T16:40:32.588Z,99590.88
2023-02-18T16:43:24.918Z,99592.59
2023-02-18T16:46:21.713Z,99597.81
2023-02-18T16:49:14.074Z,99596.06
2023-02-18T16:52:05.679Z,99602.13
2023-02-18T16:54:53.441Z,99582.22
2023-02-18T16:57:39.705Z,99594.34
2023-02-18T17:00:25.998Z,99570.94
2023-02-18T17:03:13.274Z,99613.31
2023-02-18T17:05:59.898Z,99586.50
2023-02-18T17:08:47.193Z,99621.09
2023-02-18T17:11:35.383Z,99585.63
2023-02-18T17:14:23.466Z,99584.69
2023-02-18T17:17:17.872Z,99628.88
2023-02-18T17:20:04.676Z,99596.78
2023-02-18T17:22:51.393Z,99605.44
2023-02-18T17:25:39.974Z,99595.06
2023-02-18T17:28:26.521Z,99611.50
2023-02-18T17:31:21.184Z,99631.41
2023-02-18T17:34:12.389Z,99640.88
2023-02-18T17:36:58.969Z,99599.31
2023-02-18T17:39:45.204Z,99594.09
2023-02-18T17:42:35.442Z,99615.75
2023-02-18T17:45:32.740Z,99648.66
2023-02-18T17:48:19.597Z,99671.97
2023-02-18T17:51:07.592Z,99665.03
2023-02-18T17:53:54.265Z,99643.38
2023-02-18T17:56:41.659Z,99650.31
2023-02-18T17:59:29.856Z,99613.00
2023-02-18T18:02:28.473Z,99658.03
2023-02-18T18:05:19.967Z,99683.16
2023-02-18T18:08:07.549Z,99699.56
2023-02-18T18:10:57.140Z,99692.63
2023-02-18T18:13:43.905Z,99680.44
2023-02-18T18:16:30.087Z,99699.50
2023-02-18T18:19:16.546Z,99690.81
2023-02-18T18:22:02.996Z,99676.88
2023-02-18T18:24:50.250Z,99707.22
2023-02-18T18:27:36.601Z,99665.66
2023-02-18T18:30:26.063Z,99672.63
2023-02-18T18:33:25.152Z,99680.34
2023-02-18T18:36:11.629Z,99688.13
2023-02-18T18:38:57.961Z,99650.78
2023-02-18T18:41:44.049Z,99684.59
2023-02-18T18:44:30.412Z,99688.00
2023-02-18T18:47:16.876Z,99699.31
2023-02-18T18:50:03.150Z,99691.47
2023-02-18T18:52:51.803Z,99719.25
2023-02-18T18:55:40.717Z,99688.00
2023-02-18T18:58:27.147Z,99720.03
2023-02-18T19:01:19.541Z,99727.81
2023-02-18T19:04:05.781Z,99704.31
2023-02-18T19:06:52.400Z,99721.63
2023-02-18T19:09:38.906Z,99697.38
2023-02-18T19:12:25.180Z,99668.63
2023-02-18T19:15:18.532Z,99728.25
2023-02-18T19:18:07.053Z,99703.53
2023-02-18T19:20:53.839Z,99729.25
2023-02-18T19:23:40.829Z,99749.00
2023-02-18T19:26:28.039Z,99668.06
2023-02-18T19:29:14.620Z,99716.50
2023-02-18T19:32:00.903Z,99710.47
2023-02-18T19:34:47.285Z,99663.56
2023-02-18T19:37:34.868Z,99741.75
2023-02-18T19:40:24.121Z,99736.59
2023-02-18T19:43:11.490Z,99716.44
2023-02-18T19:45:57.804Z,99714.75
2023-02-18T19:48:49.401Z,99705.19
2023-02-18T19:51:35.717Z,99727.59
2023-02-18T19:54:22.258Z,99689.44
2023-02-18T19:57:08.436Z,99714.50
2023-02-18T19:59:54.758Z,99719.69
2023-02-18T20:02:41.856Z,99725.88
2023-02-18T20:05:28.156Z,99726.72
2023-02-18T20:08:14.604Z,99718.75
2023-02-18T20:11:00.767Z,99702.34
2023-02-18T20:13:48.490Z,99713.53
2023-02-18T20:16:34.676Z,99690.94
2023-02-18T20:19:21.711Z,99735.16
2023-02-18T20:22:10.281Z,99740.44
2023-02-18T20:24:56.561Z,99730.00
2023-02-18T20:27:59.559Z,99723.81
2023-02-18T20:30:47.287Z,99735.09
2023-02-18T20:33:33.837Z,99734.13
2023-02-18T20:36:20.151Z,99679.38
2023-02-18T20:39:15.600Z,99716.69
2023-02-18T20:42:11.157Z,99676.56
2023-02-18T20:45:02.081Z,99733.00
2023-02-18T20:47:48.652Z,99702.63
2023-02-18T20:50:35.048Z,99735.56
2023-02-18T20:53:21.329Z,99708.59
2023-02-18T20:56:08.477Z,99740.59
2023-02-18T20:58:54.943Z,99729.25
2023-02-18T21:01:43.256Z,99743.94
2023-02-18T21:04:29.568Z,99712.72
2023-02-18T21:07:15.783Z,99718.78
2023-02-18T21:10:04.042Z,99697.94
2023-02-18T21:12:50.301Z,99692.66
2023-02-18T21:15:37.466Z,99740.28
2023-02-18T21:18:24.619Z,99713.34
2023-02-18T21:21:12.101Z,99713.22
2023-02-18T21:23:58.598Z,99729.72
2023-02-18T21:26:44.877Z,99706.28
2023-02-18T21:29:32.260Z,99684.47
2023-02-18T21:32:18.856Z,99708.88
2023-02-18T21:35:06.209Z,99722.72
2023-02-18T21:37:52.762Z,99743.56
2023-02-18T21:40:39.055Z,99734.88
2023-02-18T21:43:26.636Z,99726.31
2023-02-18T21:46:22.558Z,99720.09
2023-02-18T21:49:10.783Z,99681.16
2023-02-18T21:51:57.638Z,99687.09
2023-02-18T21:54:44.573Z,99706.09
2023-02-18T21:57:32.154Z,99737.31
2023-02-18T22:00:20.753Z,99694.66
2023-02-18T22:03:07.670Z,99688.63
2023-02-18T22:05:54.273Z,99672.19
2023-02-18T22:08:40.482Z,99683.47
2023-02-18T22:11:26.907Z,99705.09
2023-02-18T22:14:14.972Z,99697.38
2023-02-18T22:17:01.344Z,99658.28
2023-02-18T22:19:48.746Z,99725.19
2023-02-18T22:22:34.987Z,99680.03
2023-02-18T22:25:21.385Z,99716.59
2023-02-18T22:28:07.594Z,99713.16
2023-02-18T22:30:54.048Z,99706.16
2023-02-18T22:33:41.277Z,99628.06
2023-02-18T22:36:29.346Z,99700.13
2023-02-18T22:39:16.444Z,99650.63
2023-02-18T22:42:02.919Z,99670.53
2023-02-18T22:44:49.378Z,99698.28
2023-02-18T22:47:35.711Z,99678.22
2023-02-18T22:50:22.432Z,99675.66
2023-02-18T22:53:08.755Z,99648.81
2023-02-18T22:55:59.677Z,99672.94
2023-02-18T22:58:47.875Z,99659.16
2023-02-18T23:01:40.092Z,99615.78
2023-02-18T23:04:26.584Z,99660.00
2023-02-18T23:07:13.078Z,99663.53
2023-02-18T23:09:59.307Z,99658.34
2023-02-18T23:12:45.691Z,99654.91
2023-02-18T23:15:31.965Z,99628.78
2023-02-18T23:18:18.227Z,99639.38
2023-02-18T23:21:18.407Z,99659.25
2023-02-18T23:24:05.255Z,99660.13
2023-02-18T23:26:51.638Z,99642.88
2023-02-18T23:29:38.203Z,99654.19
2023-02-18T23:32:25.854Z,99660.34
2023-02-18T23:35:11.999Z,99615.25
2023-02-18T23:38:04.408Z,99651.72
2023-02-18T23:40:50.972Z,99601.44
2023-02-18T23:43:37.451Z,99605.81
2023-02-18T23:46:26.475Z,99594.56
2023-02-18T23:49:15.438Z,99625.81
2023-02-18T23:52:01.920Z,99612.81
2023-02-18T23:54:48.348Z,99625.75
2023-02-18T23:57:34.961Z,99592.13
